Time;durP1;ratioP1;P1;durP2;ratioP2;P2;SDS_P1;SDS_P2;PMS_P1;PMS_P2;Temp;Humidity;BMP_temperature;BMP_pressure;BME280_temperature;BME280_humidity;BME280_pressure;Samples;Min_cycle;Max_cycle;Signal;HPM_P1;HPM_P2
2022/05/19 00:02:18;;;;;;;;;;;;;;;6.60;60.51;101541.44;1759095;81;21032;-76
2022/05/19 00:04:45;;;;;;;5.53;1.83;;;;;;;6.57;60.82;101543.16;1756211;81;20503;-76
2022/05/19 00:07:14;;;;;;;6.07;1.90;;;;;;;6.52;60.76;101541.03;1756481;81;21113;-76
2022/05/19 00:09:41;;;;;;;4.60;2.13;;;;;;;6.48;60.88;101542.34;1756324;81;20985;-76
2022/05/19 00:12:16;;;;;;;5.87;1.90;;;;;;;6.46;60.91;101540.61;1756391;81;21025;-76
2022/05/19 00:14:44;;;;;;;4.67;1.97;;;;;;;6.43;61.00;101531.50;1756703;81;20910;-76
2022/05/19 00:17:12;;;;;;;2.67;1.53;;;;;;;6.42;61.04;101525.40;1756585;81;21004;-76
2022/05/19 00:19:39;;;;;;;4.13;2.00;;;;;;;6.40;61.11;101521.06;1756386;81;21080;-76
2022/05/19 00:22:07;;;;;;;2.83;1.87;;;;;;;6.35;61.00;101523.69;1756350;81;21060;-76
2022/05/19 00:24:34;;;;;;;3.10;1.90;;;;;;;6.31;61.10;101524.98;1756406;81;21084;-76
2022/05/19 00:27:01;;;;;;;4.60;1.83;;;;;;;6.25;61.25;101524.13;1756534;81;20989;-76
2022/05/19 00:29:28;;;;;;;3.83;1.80;;;;;;;6.23;61.32;101521.09;1756434;81;21028;-76
2022/05/19 00:31:55;;;;;;;3.07;1.93;;;;;;;6.23;61.59;101519.78;1756539;81;21126;-76
2022/05/19 00:34:23;;;;;;;2.93;1.70;;;;;;;6.22;61.56;101515.02;1756332;81;20922;-76
2022/05/19 00:36:59;;;;;;;4.50;1.80;;;;;;;6.21;61.64;101517.64;1756476;81;21007;-76
2022/05/19 00:39:27;;;;;;;2.70;1.80;;;;;;;6.23;61.83;101516.74;1756596;81;21474;-76
2022/05/19 00:44:42;;;;;;;2.83;1.87;;;;;;;6.19;61.74;101511.13;1756452;81;21129;-76
2022/05/19 00:47:23;;;;;;;3.20;1.60;;;;;;;6.16;61.94;101508.52;1756339;81;21083;-76
2022/05/19 00:49:51;;;;;;;2.90;1.70;;;;;;;6.14;62.17;101510.70;1756482;81;21661;-76
2022/05/19 00:52:36;;;;;;;5.60;1.77;;;;;;;6.19;62.43;101512.86;1754598;81;21056;-76
2022/05/19 00:55:10;;;;;;;2.70;1.73;;;;;;;6.22;62.48;101508.51;1747027;82;20977;-76
2022/05/19 00:57:51;;;;;;;3.13;1.83;;;;;;;6.16;62.37;101510.27;1747325;81;21478;-76
2022/05/19 01:00:22;;;;;;;4.97;1.90;;;;;;;6.13;62.46;101510.27;1738017;81;21048;-76
2022/05/19 01:02:59;;;;;;;3.67;1.67;;;;;;;6.12;62.64;101510.68;1727996;83;21087;-76
2022/05/19 01:05:34;;;;;;;5.67;2.00;;;;;;;6.07;62.44;101511.55;1747039;82;21119;-76
2022/05/19 01:08:30;;;;;;;3.40;2.00;;;;;;;6.03;62.70;101509.39;1747406;82;21061;-76
2022/05/19 01:10:58;;;;;;;3.90;1.70;;;;;;;6.02;62.83;101507.67;1747036;82;21136;-76
2022/05/19 01:13:30;;;;;;;2.40;1.60;;;;;;;5.99;62.71;101517.65;1747248;82;21096;-76
2022/05/19 01:15:56;;;;;;;3.83;2.03;;;;;;;5.97;63.03;101516.77;1747027;82;21594;-76
2022/05/19 01:18:28;;;;;;;3.35;2.08;;;;;;;6.02;63.42;101505.94;1747528;81;21537;-76
2022/05/19 01:20:55;;;;;;;;;;;;;;;6.02;62.97;101508.98;1749787;82;21000;-76
2022/05/19 01:23:49;;;;;;;4.90;1.87;;;;;;;5.97;63.56;101502.46;1747288;82;21147;-76
2022/05/19 01:26:48;;;;;;;5.77;2.10;;;;;;;5.98;63.40;101498.12;1746743;82;21032;-76
2022/05/19 01:29:20;;;;;;;4.73;2.40;;;;;;;5.94;63.45;101492.05;1746296;82;21545;-76
2022/05/19 01:32:00;;;;;;;3.90;2.20;;;;;;;5.93;63.42;101494.61;1747144;82;20984;-76
2022/05/19 01:34:33;;;;;;;3.62;2.02;;;;;;;5.86;63.34;101495.50;1747107;82;21530;-76
2022/05/19 01:37:01;;;;;;;2.90;2.40;;;;;;;5.83;63.53;101492.47;1747130;82;21967;-76
2022/05/19 01:39:31;;;;;;;4.93;2.47;;;;;;;5.84;63.65;101496.78;1746296;82;21044;-76
2022/05/19 01:42:29;;;;;;;4.13;2.17;;;;;;;5.82;63.54;101506.34;1746931;82;21075;-76
2022/05/19 01:45:25;;;;;;;2.57;1.90;;;;;;;5.77;63.86;101503.73;1747359;82;21091;-76
2022/05/19 01:48:08;;;;;;;4.13;2.10;;;;;;;5.79;64.00;101494.20;1747336;82;21016;-77
2022/05/19 01:51:02;;;;;;;5.40;2.20;;;;;;;5.80;63.92;101493.77;1747158;82;21116;-77
2022/05/19 01:53:49;;;;;;;3.97;2.40;;;;;;;5.79;63.95;101494.61;1750397;81;21091;-77
2022/05/19 01:56:21;;;;;;;3.03;2.10;;;;;;;5.83;64.04;101494.20;1752057;81;21663;-77
2022/05/19 01:59:19;;;;;;;4.70;2.33;;;;;;;5.81;64.16;101492.45;1754016;81;21369;-77
2022/05/19 02:01:53;;;;;;;3.87;2.07;;;;;;;5.81;64.07;101485.94;1754572;81;20992;-77
2022/05/19 02:04:38;;;;;;;3.23;2.10;;;;;;;5.84;64.29;101481.61;1753412;81;21138;-77
2022/05/19 02:07:10;;;;;;;3.57;2.10;;;;;;;5.87;64.24;101482.47;1753171;81;21523;-77
2022/05/19 02:09:55;;;;;;;4.13;2.10;;;;;;;5.86;64.15;101475.55;1754597;81;21493;-77
2022/05/19 02:12:24;;;;;;;4.20;2.50;;;;;;;5.85;64.15;101471.63;1754490;81;21024;-77
2022/05/19 02:14:59;;;;;;;5.77;2.67;;;;;;;5.88;64.33;101467.75;1754202;81;21003;-77
2022/05/19 02:17:29;;;;;;;4.80;2.43;;;;;;;5.92;64.23;101472.07;1754464;81;21106;-77
2022/05/19 02:20:03;;;;;;;4.95;2.50;;;;;;;5.97;64.29;101467.77;1754609;81;21011;-77
2022/05/19 02:22:41;;;;;;;4.93;2.37;;;;;;;5.96;64.23;101469.95;1754227;81;21055;-77
2022/05/19 02:25:19;;;;;;;4.00;2.40;;;;;;;6.01;64.19;101467.77;1754531;81;21047;-77
2022/05/19 02:28:14;;;;;;;4.93;3.00;;;;;;;6.06;64.20;101461.23;1754398;81;21560;-77
2022/05/19 02:30:42;;;;;;;4.00;2.70;;;;;;;6.14;64.49;101457.33;1754581;81;21818;-77
2022/05/19 02:33:15;;;;;;;6.63;2.80;;;;;;;6.18;64.06;101456.44;1754118;81;20996;-77
2022/05/19 02:35:43;;;;;;;4.17;3.00;;;;;;;6.19;64.11;101458.20;1754155;81;21039;-77
2022/05/19 02:38:12;;;;;;;3.83;2.40;;;;;;;6.18;64.09;101456.03;1754164;81;21480;-77
2022/05/19 02:40:40;;;;;;;5.80;3.10;;;;;;;6.18;63.88;101459.94;1754444;81;21070;-77
2022/05/19 02:43:08;;;;;;;4.63;2.87;;;;;;;6.21;63.83;101451.26;1754085;81;21128;-77
2022/05/19 02:45:36;;;;;;;6.67;2.73;;;;;;;6.27;63.84;101456.88;1754432;81;21045;-77
2022/05/19 02:48:05;;;;;;;6.07;2.77;;;;;;;6.33;63.94;101447.30;1754156;81;20995;-77
2022/05/19 02:50:32;;;;;;;3.63;2.37;;;;;;;6.35;63.84;101444.27;1754657;81;21529;-77
2022/05/19 02:53:00;;;;;;;4.30;2.53;;;;;;;6.35;63.64;101448.17;1761500;79;21015;-77
2022/05/19 02:55:27;;;;;;;5.10;2.63;;;;;;;6.40;63.40;101447.73;1754714;81;21753;-77
2022/05/19 02:57:55;;;;;;;6.57;2.70;;;;;;;6.56;63.44;101448.52;1754582;81;21015;-77
2022/05/19 03:00:25;;;;;;;4.83;2.70;;;;;;;6.72;63.41;101456.30;1754569;81;21023;-77
2022/05/19 03:02:57;;;;;;;4.00;2.60;;;;;;;6.80;63.55;101446.70;1754764;81;21105;-77
2022/05/19 03:05:30;;;;;;;3.13;2.23;;;;;;;6.85;62.96;101454.06;1762056;80;21159;-76
2022/05/19 03:07:57;;;;;;;4.30;2.63;;;;;;;6.92;63.01;101448.80;1780421;80;21111;-76
2022/05/19 03:10:24;;;;;;;4.57;3.20;;;;;;;7.09;62.98;101442.63;1781870;80;21063;-77
2022/05/19 03:12:53;;;;;;;4.67;2.80;;;;;;;7.12;62.75;101445.20;1756607;80;21028;-77
2022/05/19 03:15:20;;;;;;;6.23;2.83;;;;;;;7.19;62.65;101451.27;1764909;79;20985;-77
2022/05/19 03:17:47;;;;;;;5.27;2.97;;;;;;;7.23;62.48;101448.61;1754279;81;21061;-76
2022/05/19 03:20:15;;;;;;;3.93;2.67;;;;;;;7.34;62.08;101444.22;1752977;80;21330;-77
2022/05/19 03:22:42;;;;;;;5.63;3.00;;;;;;;7.43;61.69;101440.67;1751831;80;21047;-77
2022/05/19 03:25:10;;;;;;;7.50;3.23;;;;;;;7.53;61.78;101434.48;1760455;80;21051;-77
2022/05/19 03:27:39;;;;;;;5.87;2.73;;;;;;;7.70;61.44;101431.73;1754572;80;21596;-77
2022/05/19 03:30:10;;;;;;;7.17;2.93;;;;;;;7.87;61.05;101435.53;1757840;80;21388;-77
2022/05/19 03:32:38;;;;;;;7.00;2.93;;;;;;;8.00;60.74;101431.03;1753998;80;21124;-77
2022/05/19 03:35:06;;;;;;;5.30;2.90;;;;;;;8.16;60.71;101432.61;1749056;80;21107;-77
2022/05/19 03:37:33;;;;;;;9.03;3.20;;;;;;;8.29;60.25;101432.05;1751729;80;21008;-76
2022/05/19 03:40:01;;;;;;;4.50;2.60;;;;;;;8.43;60.00;101434.09;1755819;80;21051;-77
2022/05/19 03:42:28;;;;;;;4.53;2.83;;;;;;;8.55;59.74;101429.16;1761856;80;21545;-77
2022/05/19 03:44:55;;;;;;;7.63;3.13;;;;;;;8.63;59.37;101430.37;1754752;80;21144;-77
2022/05/19 03:47:22;;;;;;;5.33;3.10;;;;;;;8.70;59.03;101430.70;1762867;80;21020;-77
2022/05/19 03:49:49;;;;;;;6.27;3.27;;;;;;;8.79;58.82;101431.91;1763185;80;21067;-77
2022/05/19 03:52:16;;;;;;;9.03;3.10;;;;;;;8.86;58.41;101435.30;1742513;80;21020;-77
2022/05/19 03:54:45;;;;;;;5.63;3.40;;;;;;;8.94;58.39;101436.06;1728467;81;21066;-77
2022/05/19 03:57:13;;;;;;;6.50;2.80;;;;;;;9.01;57.93;101431.62;1755598;80;21108;-77
2022/05/19 03:59:41;;;;;;;6.10;3.13;;;;;;;9.07;57.76;101435.45;1729950;80;20979;-77
2022/05/19 04:02:08;;;;;;;9.10;3.10;;;;;;;9.15;57.71;101437.07;1730363;81;21522;-77
2022/05/19 04:04:36;;;;;;;7.33;3.10;;;;;;;9.25;57.66;101435.62;1762655;80;21075;-77
2022/05/19 04:07:04;;;;;;;8.27;3.37;;;;;;;9.30;57.35;101434.66;1755981;80;21503;-77
2022/05/19 04:09:31;;;;;;;6.37;3.43;;;;;;;9.34;57.05;101435.50;1753180;80;21097;-77
2022/05/19 04:11:58;;;;;;;8.97;3.50;;;;;;;9.38;56.91;101439.78;1751634;80;21051;-77
2022/05/19 04:14:28;;;;;;;7.50;2.97;;;;;;;9.43;56.86;101437.11;1765885;80;20993;-77
2022/05/19 04:16:55;;;;;;;9.40;3.30;;;;;;;9.47;56.41;101438.32;1753860;80;21075;-77
2022/05/19 04:19:22;;;;;;;5.87;2.80;;;;;;;9.49;56.25;101440.93;1732442;81;21016;-77
2022/05/19 04:21:49;;;;;;;5.43;3.10;;;;;;;9.52;56.15;101438.26;1755018;81;21111;-77
2022/05/19 04:24:17;;;;;;;7.00;3.10;;;;;;;9.55;56.22;101443.44;1724490;83;21055;-76
2022/05/19 04:26:44;;;;;;;7.17;2.97;;;;;;;9.61;55.96;101449.42;1754529;81;21024;-77
2022/05/19 04:29:11;;;;;;;6.77;3.13;;;;;;;9.65;55.94;101447.64;1724858;83;21009;-77
2022/05/19 04:31:38;;;;;;;7.33;2.93;;;;;;;9.71;55.77;101446.23;1754652;81;21047;-77
2022/05/19 04:34:06;;;;;;;6.80;3.30;;;;;;;9.75;55.52;101454.44;1724907;83;21072;-77
2022/05/19 04:36:33;;;;;;;6.77;3.00;;;;;;;9.78;55.41;101449.17;1754527;81;20960;-77
2022/05/19 04:39:00;;;;;;;5.33;2.87;;;;;;;9.83;55.48;101452.55;1724497;82;21097;-77
2022/05/19 04:41:29;;;;;;;5.80;2.80;;;;;;;9.89;55.31;101448.97;1755050;81;20952;-77
2022/05/19 04:43:56;;;;;;;5.90;3.00;;;;;;;9.95;55.33;101448.88;1724961;83;21052;-77
2022/05/19 04:46:23;;;;;;;6.63;3.10;;;;;;;10.04;55.25;101453.09;1754673;81;21231;-76
2022/05/19 04:48:50;;;;;;;6.73;2.93;;;;;;;10.10;55.03;101461.28;1724724;82;21562;-77
2022/05/19 04:51:17;;;;;;;6.37;2.87;;;;;;;10.14;54.89;101456.39;1750256;80;21489;-77
2022/05/19 04:53:44;;;;;;;7.67;3.13;;;;;;;10.20;54.70;101457.16;1753189;80;20986;-77
2022/05/19 04:56:12;;;;;;;4.80;2.73;;;;;;;10.25;54.59;101458.36;1732498;82;22100;-77
2022/05/19 04:58:39;;;;;;;7.07;3.33;;;;;;;10.31;54.64;101456.10;1729500;82;21112;-77
2022/05/19 05:01:06;;;;;;;10.93;3.30;;;;;;;10.38;54.46;101455.11;1724122;82;21032;-76
2022/05/19 05:03:33;;;;;;;5.20;2.93;;;;;;;10.47;54.43;101453.19;1718551;81;21012;-77
2022/05/19 05:06:01;;;;;;;6.17;2.90;;;;;;;10.56;54.24;101460.00;1686978;83;21020;-76
2022/05/19 05:08:28;;;;;;;5.17;2.90;;;;;;;10.63;54.26;101460.27;1721268;82;21059;-77
2022/05/19 05:10:55;;;;;;;6.73;3.10;;;;;;;10.69;54.32;101459.28;1749302;81;21127;-76
2022/05/19 05:13:22;;;;;;;5.43;3.20;;;;;;;10.78;54.20;101463.05;1727548;83;21043;-77
2022/05/19 05:15:51;;;;;;;6.20;2.70;;;;;;;10.84;54.00;101462.91;1757768;81;21091;-76
2022/05/19 05:18:17;;;;;;;8.07;3.03;;;;;;;10.88;53.83;101462.39;1727667;83;21430;-75
2022/05/19 05:20:44;;;;;;;5.13;3.03;;;;;;;10.90;53.71;101466.71;1757757;81;21024;-78
2022/05/19 05:23:13;;;;;;;6.40;3.10;;;;;;;10.91;53.59;101470.19;1727939;83;21597;-75
2022/05/19 05:25:41;;;;;;;5.23;3.00;;;;;;;10.92;53.50;101474.56;1757938;81;21096;-77
2022/05/19 05:28:08;;;;;;;5.07;3.03;;;;;;;10.91;53.35;101474.98;1727724;83;21645;-77
2022/05/19 05:30:36;;;;;;;4.60;3.10;;;;;;;10.93;53.33;101480.20;1757665;81;21040;-78
2022/05/19 05:33:09;;;;;;;4.47;3.20;;;;;;;10.91;53.38;101478.91;1713298;83;21055;-76
2022/05/19 05:35:37;;;;;;;10.83;3.70;;;;;;;10.91;53.32;101478.91;1757702;81;22002;-76
2022/05/19 05:38:04;;;;;;;7.43;3.40;;;;;;;10.92;53.23;101483.73;1727751;82;21031;-77
2022/05/19 05:40:31;;;;;;;5.63;3.30;;;;;;;10.94;53.35;101488.03;1757647;81;21447;-79
2022/05/19 05:43:07;;;;;;;9.03;3.50;;;;;;;10.96;53.25;101482.77;1727612;83;21016;-77
2022/05/19 05:45:34;;;;;;;6.70;2.90;;;;;;;11.00;53.19;101480.93;1757735;81;21106;-78
2022/05/19 05:48:01;;;;;;;5.83;3.17;;;;;;;11.04;53.49;101479.53;1727835;83;22061;-77
2022/05/19 05:50:28;;;;;;;8.60;3.20;;;;;;;11.11;53.31;101486.38;1711471;81;21727;-77
2022/05/19 05:52:56;;;;;;;6.53;2.73;;;;;;;11.19;53.28;101485.33;1705200;84;21012;-76
2022/05/19 05:55:29;;;;;;;5.17;2.63;;;;;;;11.29;53.39;101486.86;1728115;82;21113;-77
2022/05/19 05:57:56;;;;;;;5.10;2.87;;;;;;;11.39;53.23;101482.69;1733803;82;20995;-76
2022/05/19 06:00:23;;;;;;;4.97;2.50;;;;;;;11.52;53.23;101482.38;1742582;80;21964;-76
2022/05/19 06:02:50;;;;;;;4.83;2.40;;;;;;;11.63;53.18;101476.42;1685430;85;21024;-76
2022/05/19 06:05:18;;;;;;;8.80;2.77;;;;;;;11.75;53.24;101468.69;1747478;82;21467;-77
2022/05/19 06:07:45;;;;;;;6.47;3.13;;;;;;;11.88;52.89;101470.14;1747390;82;20997;-76
2022/05/19 06:10:14;;;;;;;4.87;2.63;;;;;;;12.00;52.82;101471.16;1747378;80;21052;-76
2022/05/19 06:12:42;;;;;;;4.30;2.30;;;;;;;12.12;52.69;101466.48;1728557;81;22198;-78
2022/05/19 06:15:12;;;;;;;5.00;2.50;;;;;;;12.26;52.85;101468.29;1763933;81;21023;-76
2022/05/19 06:17:39;;;;;;;4.87;2.43;;;;;;;12.40;53.29;101462.20;1763620;81;21079;-76
2022/05/19 06:20:10;;;;;;;4.67;2.63;;;;;;;12.53;53.23;101465.36;1703696;84;21064;-76
2022/05/19 06:22:39;;;;;;;5.20;2.10;;;;;;;12.65;53.18;101465.00;1763700;81;21552;-76
2022/05/19 06:25:07;;;;;;;4.37;1.92;;;;;;;12.79;53.35;101465.91;1763992;81;21035;-76
2022/05/19 06:27:36;;;;;;;5.72;2.58;;;;;;;12.92;53.31;101473.01;1703415;84;21062;-76
2022/05/19 06:30:07;;;;;;;5.37;2.40;;;;;;;13.03;52.95;101463.48;1763852;81;20996;-78
2022/05/19 06:32:36;;;;;;;7.65;2.67;;;;;;;13.15;52.80;101470.53;1702957;83;21050;-76
2022/05/19 06:35:04;;;;;;;3.80;2.43;;;;;;;13.27;52.99;101473.73;1761417;80;21059;-76
2022/05/19 06:37:32;;;;;;;6.22;2.47;;;;;;;13.37;52.87;101474.70;1703224;84;21364;-75
2022/05/19 06:39:59;;;;;;;5.47;3.02;;;;;;;13.50;52.95;101482.23;1763642;81;21063;-76
2022/05/19 06:42:27;;;;;;;3.95;2.50;;;;;;;13.62;53.08;101483.15;1703363;84;21067;-75
2022/05/19 06:44:56;;;;;;;4.78;2.77;;;;;;;13.73;53.04;101480.17;1763770;81;21506;-76
2022/05/19 06:47:23;;;;;;;4.75;2.47;;;;;;;13.87;53.21;101478.39;1763955;81;21039;-75
2022/05/19 06:49:54;;;;;;;7.15;2.50;;;;;;;13.99;53.23;101472.69;1763744;81;21160;-75
2022/05/19 06:52:26;;;;;;;6.28;3.20;;;;;;;14.14;53.38;101473.96;1763926;81;20977;-75
2022/05/19 06:54:56;;;;;;;4.33;2.47;;;;;;;14.27;53.27;101472.16;1716171;82;20977;-75
2022/05/19 06:57:26;;;;;;;7.75;2.42;;;;;;;14.40;53.11;101465.97;1763297;81;21024;-74
2022/05/19 06:59:54;;;;;;;5.85;2.77;;;;;;;14.53;52.91;101464.26;1733379;82;21057;-75
2022/05/19 07:02:24;;;;;;;6.50;2.52;;;;;;;14.65;52.99;101462.48;1763142;81;21106;-76
2022/05/19 07:04:52;;;;;;;7.33;2.85;;;;;;;14.77;52.83;101461.16;1763344;81;20936;-75
2022/05/19 07:07:19;;;;;;;4.15;2.30;;;;;;;14.90;52.86;101462.41;1763385;81;21039;-75
2022/05/19 07:09:46;;;;;;;6.00;2.55;;;;;;;15.02;52.57;101451.83;1763204;81;21020;-75
2022/05/19 07:12:15;;;;;;;5.30;2.42;;;;;;;15.16;52.63;101453.50;1763624;81;21043;-74
2022/05/19 07:14:42;;;;;;;6.90;2.37;;;;;;;15.32;52.51;101453.73;1732658;82;21086;-75
2022/05/19 07:17:10;;;;;;;11.00;3.10;;;;;;;15.46;52.19;101457.99;1763343;81;21051;-75
2022/05/19 07:22:25;;;;;;;7.35;2.45;;;;;;;15.74;52.29;101455.14;1763485;81;21035;-76
2022/05/19 07:24:52;;;;;;;6.35;2.27;;;;;;;15.93;52.06;101454.34;1763161;81;21034;-79
2022/05/19 07:27:19;;;;;;;4.87;2.25;;;;;;;16.09;51.98;101455.41;1763357;81;21834;-77
2022/05/19 07:29:47;;;;;;;4.95;2.22;;;;;;;16.25;51.85;101447.67;1762966;81;21510;-78
2022/05/19 07:32:14;;;;;;;4.37;1.85;;;;;;;16.41;51.81;101449.18;1763345;81;21023;-76
2022/05/19 07:34:41;;;;;;;4.85;2.22;;;;;;;16.55;51.59;101449.41;1763285;81;20984;-76
2022/05/19 07:37:10;;;;;;;5.83;2.55;;;;;;;16.72;51.63;101448.17;1763540;81;21129;-76
2022/05/19 07:39:37;;;;;;;4.00;2.15;;;;;;;16.87;51.25;101451.06;1733079;82;22137;-79
2022/05/19 07:42:06;;;;;;;7.72;2.42;;;;;;;17.04;51.24;101442.33;1763299;81;21498;-75
2022/05/19 07:44:33;;;;;;;5.20;1.80;;;;;;;17.20;50.77;101447.29;1733641;81;21023;-77
2022/05/19 07:47:00;;;;;;;3.40;1.87;;;;;;;17.30;50.45;101449.90;1757356;80;21581;-75
2022/05/19 07:49:27;;;;;;;4.03;2.40;;;;;;;17.45;50.57;101452.26;1764487;79;21517;-75
2022/05/19 07:51:54;;;;;;;4.30;2.08;;;;;;;17.64;50.38;101450.03;1743700;81;21513;-77
2022/05/19 07:54:26;;;;;;;5.10;2.10;;;;;;;17.81;50.15;101451.39;1772023;80;21513;-75
2022/05/19 07:56:55;;;;;;;6.97;2.42;;;;;;;17.97;49.96;101447.03;1759092;81;20989;-75
2022/05/19 07:59:23;;;;;;;5.08;2.10;;;;;;;18.12;49.79;101445.37;1772550;81;21013;-79
2022/05/19 08:01:51;;;;;;;4.25;1.92;;;;;;;18.29;49.59;101443.19;1759079;81;21533;-75
2022/05/19 08:04:20;;;;;;;5.22;2.08;;;;;;;18.42;49.23;101439.39;1772576;81;21341;-76
2022/05/19 08:06:47;;;;;;;3.43;1.87;;;;;;;18.55;49.15;101438.28;1759538;81;20943;-75
2022/05/19 08:12:02;;;;;;;4.33;2.05;;;;;;;18.83;48.45;101444.30;1739186;81;21016;-80
2022/05/19 08:17:18;;;;;;;4.17;2.10;;;;;;;19.02;47.75;101437.50;1761077;80;21185;-78
2022/05/19 08:19:46;;;;;;;6.70;2.05;;;;;;;19.12;47.71;101434.25;1762270;80;21008;-81
2022/05/19 08:22:14;;;;;;;5.33;2.20;;;;;;;19.29;47.87;101437.75;1748248;80;21008;-76
2022/05/19 08:24:46;;;;;;;4.10;2.17;;;;;;;19.46;47.63;101436.30;1759379;80;20997;-74
2022/05/19 08:27:10;;;;;;;2.80;2.00;;;;;;;19.55;46.72;101437.09;1763341;80;21358;-79
2022/05/19 08:29:37;;;;;;;7.05;2.02;;;;;;;19.63;46.55;101437.13;1763663;80;21584;-81
2022/05/19 08:32:05;;;;;;;4.03;2.02;;;;;;;19.77;46.65;101424.75;1763714;80;21028;-76
2022/05/19 08:34:32;;;;;;;6.45;2.40;;;;;;;19.95;46.62;101425.92;1763251;80;21509;-78
2022/05/19 08:36:59;;;;;;;5.95;1.80;;;;;;;20.13;46.51;101423.97;1763779;80;21074;-74
2022/05/19 08:39:26;;;;;;;6.30;4.65;;;;;;;20.29;46.16;101418.09;1750214;80;21098;-77
2022/05/19 08:41:58;;;;;;;6.03;2.83;;;;;;;20.43;46.18;101415.42;1742932;80;21121;-75
2022/05/19 08:44:48;;;;;;;6.08;2.40;;;;;;;20.64;46.10;101417.71;1748894;81;21087;-74
2022/05/19 08:47:15;;;;;;;4.25;2.00;;;;;;;20.81;45.99;101410.86;1759314;80;21027;-79
2022/05/19 08:49:51;;;;;;;3.27;1.82;;;;;;;20.97;45.34;101408.52;1784319;80;21526;-76
2022/05/19 08:52:25;;;;;;;3.35;1.82;;;;;;;21.13;45.16;101403.42;1754381;81;21094;-75
2022/05/19 08:54:57;;;;;;;3.35;1.65;;;;;;;21.30;43.87;101402.31;1775811;79;21108;-75
2022/05/19 08:57:38;;;;;;;2.52;1.52;;;;;;;21.42;43.45;101399.33;1763010;80;21083;-77
2022/05/19 09:00:20;;;;;;;5.12;1.52;;;;;;;21.60;42.97;101399.44;1761354;81;21000;-74
2022/05/19 09:03:17;;;;;;;3.52;1.72;;;;;;;21.72;42.85;101396.41;1736118;82;20985;-74
2022/05/19 09:06:26;;;;;;;4.80;1.75;;;;;;;21.91;42.38;101396.01;1804600;79;21060;-73
2022/05/19 09:09:15;;;;;;;2.75;1.60;;;;;;;22.10;41.84;101385.41;1803292;79;21301;-74
2022/05/19 09:11:50;;;;;;;6.75;1.80;;;;;;;22.23;41.36;101382.28;1736468;82;21031;-74
2022/05/19 09:14:30;;;;;;;4.58;1.60;;;;;;;22.40;40.90;101385.09;1803860;79;20993;-74
2022/05/19 09:17:05;;;;;;;2.42;1.47;;;;;;;22.48;40.49;101382.23;1736121;82;21028;-74
2022/05/19 09:19:47;;;;;;;5.37;1.47;;;;;;;22.61;40.15;101374.17;1803851;79;21028;-76
2022/05/19 09:22:19;;;;;;;2.40;1.35;;;;;;;22.71;40.32;101380.57;1736127;82;21079;-75
2022/05/19 09:24:50;;;;;;;2.60;1.62;;;;;;;22.88;40.26;101379.34;1804715;79;20993;-74
2022/05/19 09:27:19;;;;;;;3.17;1.40;;;;;;;23.07;40.19;101379.36;1804500;79;21014;-76
2022/05/19 09:29:50;;;;;;;2.40;1.60;;;;;;;23.23;39.96;101379.08;1804782;79;21021;-74
2022/05/19 09:32:31;;;;;;;3.45;1.55;;;;;;;23.38;39.77;101365.37;1736163;82;21532;-73
2022/05/19 09:35:31;;;;;;;6.75;1.95;;;;;;;23.53;39.35;101362.05;1804781;79;21099;-75
2022/05/19 09:38:13;;;;;;;6.10;1.67;;;;;;;23.68;39.17;101350.63;1802679;79;21682;-74
2022/05/19 09:40:41;;;;;;;2.60;1.47;;;;;;;23.84;38.87;101349.00;1736265;82;21552;-78
2022/05/19 09:43:36;;;;;;;4.42;1.87;;;;;;;24.02;38.91;101349.37;1804511;79;21536;-74
2022/05/19 09:46:14;;;;;;;3.42;1.55;;;;;;;24.18;38.59;101339.64;1736485;82;21497;-80
2022/05/19 09:48:49;;;;;;;5.70;1.70;;;;;;;24.36;37.92;101337.30;1804515;79;21171;-74
2022/05/19 09:51:23;;;;;;;4.17;1.77;;;;;;;24.48;37.35;101339.05;1736418;82;21023;-77
2022/05/19 09:53:57;;;;;;;2.55;1.52;;;;;;;24.54;36.63;101341.72;1803078;79;21083;-75
2022/05/19 09:56:39;;;;;;;2.12;1.45;;;;;;;24.64;36.65;101336.83;1717063;81;21039;-74
2022/05/19 09:59:10;;;;;;;3.37;1.67;;;;;;;24.81;36.41;101330.57;1759885;81;21089;-74
2022/05/19 10:01:46;;;;;;;5.90;1.40;;;;;;;24.91;35.98;101327.47;1759160;81;21124;-74
2022/05/19 10:04:32;;;;;;;5.08;1.40;;;;;;;25.03;35.63;101335.01;1759200;81;20993;-74
2022/05/19 10:07:09;;;;;;;4.83;1.65;;;;;;;25.14;35.34;101331.81;1759629;81;21027;-76
2022/05/19 10:09:42;;;;;;;4.95;1.82;;;;;;;25.32;35.07;101324.03;1759140;81;21056;-75
2022/05/19 10:12:16;;;;;;;3.72;1.60;;;;;;;25.42;34.86;101326.80;1759834;81;21008;-76
2022/05/19 10:14:43;;;;;;;7.25;1.70;;;;;;;25.57;34.34;101319.26;1758311;81;22283;-79
2022/05/19 10:17:32;;;;;;;3.42;1.55;;;;;;;25.73;33.97;101326.35;1744477;81;21016;-76
2022/05/19 10:20:12;;;;;;;2.47;1.40;;;;;;;25.83;33.67;101317.05;1759473;81;21004;-75
2022/05/19 10:23:10;;;;;;;2.15;1.32;;;;;;;26.00;33.53;101315.08;1759995;81;20948;-75
2022/05/19 10:26:02;;;;;;;4.93;1.53;;;;;;;26.17;33.02;101304.18;1759742;81;20977;-75
2022/05/19 10:32:23;;;;;;;3.80;1.57;;;;;;;26.77;32.76;101297.96;1759544;81;21525;-76
2022/05/19 10:35:34;;;;;;;4.10;1.52;;;;;;;26.97;32.09;101298.34;1759484;81;20956;-75
2022/05/19 10:38:51;;;;;;;1.77;1.30;;;;;;;27.23;32.06;101284.33;1759839;81;20985;-75
2022/05/19 10:41:48;;;;;;;4.15;1.37;;;;;;;27.58;31.77;101264.84;1771305;80;21569;-76
2022/05/19 10:44:35;;;;;;;4.22;1.20;;;;;;;28.00;31.37;101269.81;1759533;81;21172;-75
2022/05/19 10:47:22;;;;;;;2.72;1.00;;;;;;;28.17;30.53;101263.61;1758978;81;21000;-76
2022/05/19 10:50:11;;;;;;;2.17;0.98;;;;;;;28.21;29.54;101254.25;1759471;81;21067;-76
2022/05/19 10:52:53;;;;;;;15.08;2.62;;;;;;;28.30;29.24;101253.83;1759682;81;21016;-75
2022/05/19 10:55:34;;;;;;;1.98;1.20;;;;;;;28.55;29.17;101248.73;1761920;79;21015;-78
2022/05/19 10:58:40;;;;;;;4.80;1.27;;;;;;;28.77;28.84;101245.57;1803041;79;21943;-78
2022/05/19 11:01:31;;;;;;;2.83;1.15;;;;;;;29.01;28.69;101241.36;1803908;79;21004;-77
2022/05/19 11:04:45;;;;;;;5.60;1.27;;;;;;;29.28;28.21;101235.02;1732927;81;21036;-78
2022/05/19 11:07:36;;;;;;;2.15;1.20;;;;;;;29.45;27.86;101227.86;1763111;81;20964;-76
2022/05/19 11:10:34;;;;;;;2.58;1.10;;;;;;;29.60;27.12;101228.11;1762657;81;21047;-78
2022/05/19 11:13:32;;;;;;;1.60;0.93;;;;;;;29.54;26.52;101227.77;1762611;81;21127;-77
2022/05/19 11:16:18;;;;;;;2.77;1.25;;;;;;;29.61;26.60;101228.47;1729249;81;21457;-77
2022/05/19 11:19:03;;;;;;;1.62;0.82;;;;;;;29.75;26.24;101221.13;1761761;81;20996;-79
2022/05/19 11:21:54;;;;;;;6.53;1.30;;;;;;;29.73;25.63;101225.33;1763225;81;21044;-77
2022/05/19 11:24:29;;;;;;;3.62;1.20;;;;;;;29.64;25.48;101226.83;1761134;81;21595;-77
2022/05/19 11:27:07;;;;;;;2.20;1.07;;;;;;;29.72;25.40;101212.00;1733352;82;22042;-80
2022/05/19 11:29:48;;;;;;;5.85;1.20;;;;;;;29.86;25.08;101206.48;1762763;81;22117;-76
2022/05/19 11:32:27;;;;;;;3.52;0.95;;;;;;;29.92;24.85;101206.66;1733085;82;42209;-76
2022/05/19 11:35:27;;;;;;;3.27;0.90;;;;;;;29.91;24.46;101200.09;1763380;81;21557;-74
2022/05/19 11:38:21;;;;;;;4.90;1.00;;;;;;;29.99;24.45;101202.31;1762710;81;21748;-81
2022/05/19 11:41:09;;;;;;;2.20;1.00;;;;;;;30.08;24.30;101196.93;1763033;81;21185;-82
2022/05/19 11:43:48;;;;;;;2.95;0.95;;;;;;;30.31;24.10;101185.00;1753267;80;21064;-78
2022/05/19 11:46:21;;;;;;;2.90;1.15;;;;;;;30.44;23.43;101190.26;1733751;82;21020;-86
2022/05/19 11:55:17;;;;;;;3.12;0.90;;;;;;;30.12;22.78;101188.81;1733233;82;21220;-80
2022/05/19 11:58:12;;;;;;;3.70;1.10;;;;;;;30.20;22.47;101177.50;1726795;82;21032;-80
2022/05/19 12:00:47;;;;;;;4.80;0.95;;;;;;;30.20;22.23;101178.02;1726913;83;21516;-79
2022/05/19 12:03:27;;;;;;;3.27;0.82;;;;;;;30.11;22.13;101175.81;1726790;83;21016;-77
2022/05/19 12:06:00;;;;;;;;;;;;;;;30.25;22.32;101164.04;1729347;83;21605;-82
2022/05/19 12:09:00;;;;;;;3.70;1.00;;;;;;;30.45;21.85;101162.19;1726874;83;21121;-78
2022/05/19 12:11:45;;;;;;;2.98;0.98;;;;;;;30.64;21.93;101163.72;1726810;83;21028;-76
2022/05/19 12:14:21;;;;;;;2.92;1.00;;;;;;;30.70;21.16;101158.64;1726991;83;20948;-76
2022/05/19 12:16:59;;;;;;;1.52;0.75;;;;;;;30.63;20.86;101157.14;1726363;82;21474;-75
2022/05/19 12:19:58;;;;;;;2.43;0.83;;;;;;;30.65;20.81;101155.08;1727224;83;21072;-76
2022/05/19 12:22:36;;;;;;;1.50;0.70;;;;;;;30.71;20.51;101162.55;1726760;83;21147;-75